sensor_id;sensor_type;location;lat;lon;timestamp;pressure;altitude;pressure_sealevel;temperature;humidity
53619;BME280;39505;53.040;18.488;2022-10-16T00:00:00;101080.94;;;14.89;100.00
53619;BME280;39505;53.040;18.488;2022-10-16T00:00:13;101078.06;;;14.91;100.00
53619;BME280;39505;53.040;18.488;2022-10-16T00:00:45;101075.38;;;14.91;100.00
53619;BME280;39505;53.040;18.488;2022-10-16T00:01:18;101077.22;;;14.90;100.00
53619;BME280;39505;53.040;18.488;2022-10-16T00:01:31;101080.94;;;14.89;100.00
53619;BME280;39505;53.040;18.488;2022-10-16T00:01:44;101075.56;;;14.89;100.00
53619;BME280;39505;53.040;18.488;2022-10-16T00:01:57;101073.84;;;14.88;100.00
53619;BME280;39505;53.040;18.488;2022-10-16T00:02:09;101069.28;;;14.89;100.00
53619;BME280;39505;53.040;18.488;2022-10-16T00:02:23;101082.78;;;14.89;100.00
53619;BME280;39505;53.040;18.488;2022-10-16T00:02:36;101080.94;;;14.89;100.00
53619;BME280;39505;53.040;18.488;2022-10-16T00:02:49;101086.34;;;14.89;100.00
53619;BME280;39505;53.040;18.488;2022-10-16T00:03:02;101074.69;;;14.89;100.00
53619;BME280;39505;53.040;18.488;2022-10-16T00:03:15;101067.44;;;14.89;100.00
53619;BME280;39505;53.040;18.488;2022-10-16T00:03:27;101074.69;;;14.89;100.00
53619;BME280;39505;53.040;18.488;2022-10-16T00:03:42;101080.06;;;14.89;100.00
53619;BME280;39505;53.040;18.488;2022-10-16T00:03:58;101080.06;;;14.89;100.00
53619;BME280;39505;53.040;18.488;2022-10-16T00:04:10;101080.06;;;14.89;100.00
53619;BME280;39505;53.040;18.488;2022-10-16T00:04:23;101073.84;;;14.88;100.00
53619;BME280;39505;53.040;18.488;2022-10-16T00:04:36;101093.56;;;14.89;100.00
53619;BME280;39505;53.040;18.488;2022-10-16T00:04:49;101078.41;;;14.88;100.00
53619;BME280;39505;53.040;18.488;2022-10-16T00:05:01;101071.97;;;14.89;100.00
53619;BME280;39505;53.040;18.488;2022-10-16T00:05:14;101073.84;;;14.88;100.00
53619;BME280;39505;53.040;18.488;2022-10-16T00:05:28;101079.22;;;14.88;100.00
53619;BME280;39505;53.040;18.488;2022-10-16T00:05:42;101079.22;;;14.88;100.00
53619;BME280;39505;53.040;18.488;2022-10-16T00:05:59;101078.41;;;14.88;100.00
53619;BME280;39505;53.040;18.488;2022-10-16T00:06:13;101082.94;;;14.87;100.00
53619;BME280;39505;53.040;18.488;2022-10-16T00:06:27;101083.78;;;14.88;100.00
53619;BME280;39505;53.040;18.488;2022-10-16T00:06:40;101075.00;;;14.86;100.00
53619;BME280;39505;53.040;18.488;2022-10-16T00:06:53;101076.69;;;14.87;100.00
53619;BME280;39505;53.040;18.488;2022-10-16T00:07:06;101077.56;;;14.87;100.00
53619;BME280;39505;53.040;18.488;2022-10-16T00:07:19;101079.38;;;14.87;100.00
53619;BME280;39505;53.040;18.488;2022-10-16T00:07:31;101078.53;;;14.86;100.00
53619;BME280;39505;53.040;18.488;2022-10-16T00:07:44;101081.09;;;14.88;100.00
53619;BME280;39505;53.040;18.488;2022-10-16T00:07:57;101081.25;;;14.86;100.00
53619;BME280;39505;53.040;18.488;2022-10-16T00:08:11;101072.44;;;14.84;100.00
53619;BME280;39505;53.040;18.488;2022-10-16T00:08:24;101091.19;;;14.86;100.00
53619;BME280;39505;53.040;18.488;2022-10-16T00:08:38;101087.66;;;14.85;100.00
53619;BME280;39505;53.040;18.488;2022-10-16T00:08:51;101078.53;;;14.86;100.00
53619;BME280;39505;53.040;18.488;2022-10-16T00:09:04;101090.34;;;14.85;100.00
53619;BME280;39505;53.040;18.488;2022-10-16T00:09:17;101091.19;;;14.86;100.00
53619;BME280;39505;53.040;18.488;2022-10-16T00:09:30;101087.66;;;14.85;100.00
53619;BME280;39505;53.040;18.488;2022-10-16T00:09:43;101088.50;;;14.86;100.00
53619;BME280;39505;53.040;18.488;2022-10-16T00:09:56;101084.94;;;14.85;100.00
53619;BME280;39505;53.040;18.488;2022-10-16T00:10:09;101085.94;;;14.84;100.00
53619;BME280;39505;53.040;18.488;2022-10-16T00:10:22;101090.50;;;14.84;100.00
53619;BME280;39505;53.040;18.488;2022-10-16T00:10:35;101095.88;;;14.84;100.00
53619;BME280;39505;53.040;18.488;2022-10-16T00:10:48;101092.34;;;14.83;100.00
53619;BME280;39505;53.040;18.488;2022-10-16T00:11:02;101095.06;;;14.83;100.00
53619;BME280;39505;53.040;18.488;2022-10-16T00:11:17;101092.34;;;14.83;100.00
53619;BME280;39505;53.040;18.488;2022-10-16T00:11:32;101089.66;;;14.83;100.00
53619;BME280;39505;53.040;18.488;2022-10-16T00:11:45;101095.19;;;14.82;100.00
53619;BME280;39505;53.040;18.488;2022-10-16T00:11:58;101087.94;;;14.82;100.00
53619;BME280;39505;53.040;18.488;2022-10-16T00:12:11;101096.03;;;14.82;100.00
53619;BME280;39505;53.040;18.488;2022-10-16T00:12:23;101095.19;;;14.82;100.00
53619;BME280;39505;53.040;18.488;2022-10-16T00:12:36;101091.66;;;14.81;100.00
53619;BME280;39505;53.040;18.488;2022-10-16T00:12:49;101097.88;;;14.82;100.00
53619;BME280;39505;53.040;18.488;2022-10-16T00:13:03;101094.34;;;14.81;100.00
53619;BME280;39505;53.040;18.488;2022-10-16T00:13:16;101096.22;;;14.81;100.00
53619;BME280;39505;53.040;18.488;2022-10-16T00:13:30;101092.63;;;14.80;100.00
53619;BME280;39505;53.040;18.488;2022-10-16T00:13:45;101094.34;;;14.81;100.00
53619;BME280;39505;53.040;18.488;2022-10-16T00:13:59;101098.03;;;14.80;100.00
53619;BME280;39505;53.040;18.488;2022-10-16T00:14:14;101090.94;;;14.79;100.00
53619;BME280;39505;53.040;18.488;2022-10-16T00:14:28;101096.34;;;14.79;100.00
53619;BME280;39505;53.040;18.488;2022-10-16T00:14:40;101095.50;;;14.78;100.00
53619;BME280;39505;53.040;18.488;2022-10-16T00:14:56;101098.22;;;14.78;100.00
53619;BME280;39505;53.040;18.488;2022-10-16T00:15:09;101094.63;;;14.78;100.00
53619;BME280;39505;53.040;18.488;2022-10-16T00:15:22;101091.09;;;14.77;100.00
53619;BME280;39505;53.040;18.488;2022-10-16T00:15:35;101094.63;;;14.78;100.00
53619;BME280;39505;53.040;18.488;2022-10-16T00:15:49;101099.19;;;14.77;100.00
53619;BME280;39505;53.040;18.488;2022-10-16T00:16:02;101095.66;;;14.77;100.00
53619;BME280;39505;53.040;18.488;2022-10-16T00:16:16;101092.94;;;14.77;100.00
53619;BME280;39505;53.040;18.488;2022-10-16T00:16:29;101101.03;;;14.77;100.00
53619;BME280;39505;53.040;18.488;2022-10-16T00:16:42;101097.50;;;14.76;100.00
53619;BME280;39505;53.040;18.488;2022-10-16T00:16:55;101093.94;;;14.76;100.00
53619;BME280;39505;53.040;18.488;2022-10-16T00:17:07;101100.34;;;14.75;100.00
53619;BME280;39505;53.040;18.488;2022-10-16T00:17:20;101096.81;;;14.74;100.00
53619;BME280;39505;53.040;18.488;2022-10-16T00:17:33;101099.50;;;14.74;100.00
53619;BME280;39505;53.040;18.488;2022-10-16T00:17:46;101096.81;;;14.74;100.00
53619;BME280;39505;53.040;18.488;2022-10-16T00:17:59;101092.38;;;14.73;100.00
53619;BME280;39505;53.040;18.488;2022-10-16T00:18:12;101096.94;;;14.73;100.00
53619;BME280;39505;53.040;18.488;2022-10-16T00:18:27;101095.25;;;14.72;100.00
53619;BME280;39505;53.040;18.488;2022-10-16T00:18:40;101093.56;;;14.71;100.00
53619;BME280;39505;53.040;18.488;2022-10-16T00:18:53;101097.09;;;14.71;100.00
53619;BME280;39505;53.040;18.488;2022-10-16T00:19:07;101092.72;;;14.70;100.00
53619;BME280;39505;53.040;18.488;2022-10-16T00:19:20;101100.94;;;14.69;100.00
53619;BME280;39505;53.040;18.488;2022-10-16T00:19:32;101097.41;;;14.68;100.00
53619;BME280;39505;53.040;18.488;2022-10-16T00:19:45;101096.56;;;14.68;100.00
53619;BME280;39505;53.040;18.488;2022-10-16T00:19:58;101100.09;;;14.68;100.00
53619;BME280;39505;53.040;18.488;2022-10-16T00:20:11;101101.97;;;14.68;100.00
53619;BME280;39505;53.040;18.488;2022-10-16T00:20:24;101094.84;;;14.67;100.00
53619;BME280;39505;53.040;18.488;2022-10-16T00:20:37;101097.53;;;14.67;100.00
53619;BME280;39505;53.040;18.488;2022-10-16T00:20:50;101094.16;;;14.65;100.00
53619;BME280;39505;53.040;18.488;2022-10-16T00:21:04;101098.56;;;14.66;100.00
53619;BME280;39505;53.040;18.488;2022-10-16T00:21:19;101099.41;;;14.66;100.00
53619;BME280;39505;53.040;18.488;2022-10-16T00:21:32;101099.53;;;14.65;100.00
53619;BME280;39505;53.040;18.488;2022-10-16T00:21:46;101103.25;;;14.64;100.00
53619;BME280;39505;53.040;18.488;2022-10-16T00:21:59;101098.69;;;14.64;100.00
53619;BME280;39505;53.040;18.488;2022-10-16T00:22:11;101098.00;;;14.62;100.00
53619;BME280;39505;53.040;18.488;2022-10-16T00:22:24;101099.00;;;14.61;100.00
53619;BME280;39505;53.040;18.488;2022-10-16T00:22:37;101099.00;;;14.61;100.00
53619;BME280;39505;53.040;18.488;2022-10-16T00:22:50;101107.94;;;14.62;100.00
53619;BME280;39505;53.040;18.488;2022-10-16T00:23:03;101102.69;;;14.60;100.00
53619;BME280;39505;53.040;18.488;2022-10-16T00:23:16;101100.13;;;14.58;100.00
53619;BME280;39505;53.040;18.488;2022-10-16T00:23:30;101105.53;;;14.58;100.00
53619;BME280;39505;53.040;18.488;2022-10-16T00:23:43;101100.13;;;14.58;100.00
53619;BME280;39505;53.040;18.488;2022-10-16T00:23:58;101101.16;;;14.57;100.00
53619;BME280;39505;53.040;18.488;2022-10-16T00:24:11;101101.28;;;14.56;100.00
53619;BME280;39505;53.040;18.488;2022-10-16T00:24:24;101099.44;;;14.56;100.00
53619;BME280;39505;53.040;18.488;2022-10-16T00:24:37;101104.00;;;14.56;100.00
53619;BME280;39505;53.040;18.488;2022-10-16T00:24:51;101101.28;;;14.56;100.00
53619;BME280;39505;53.040;18.488;2022-10-16T00:25:04;101103.16;;;14.55;100.00
53619;BME280;39505;53.040;18.488;2022-10-16T00:25:17;101100.44;;;14.55;100.00
53619;BME280;39505;53.040;18.488;2022-10-16T00:25:29;101098.78;;;14.54;100.00
53619;BME280;39505;53.040;18.488;2022-10-16T00:25:44;101105.00;;;14.55;100.00
53619;BME280;39505;53.040;18.488;2022-10-16T00:25:59;101097.91;;;14.54;100.00
53619;BME280;39505;53.040;18.488;2022-10-16T00:26:15;101103.28;;;14.54;100.00
53619;BME280;39505;53.040;18.488;2022-10-16T00:26:30;101111.38;;;14.54;100.00
53619;BME280;39505;53.040;18.488;2022-10-16T00:26:44;101109.56;;;14.54;100.00
53619;BME280;39505;53.040;18.488;2022-10-16T00:26:57;101102.44;;;14.53;100.00
53619;BME280;39505;53.040;18.488;2022-10-16T00:27:09;101101.59;;;14.53;100.00
53619;BME280;39505;53.040;18.488;2022-10-16T00:27:22;101097.19;;;14.52;100.00
53619;BME280;39505;53.040;18.488;2022-10-16T00:27:35;101099.88;;;14.52;100.00
53619;BME280;39505;53.040;18.488;2022-10-16T00:27:48;101102.44;;;14.53;100.00
53619;BME280;39505;53.040;18.488;2022-10-16T00:28:01;101107.00;;;14.53;100.00
53619;BME280;39505;53.040;18.488;2022-10-16T00:28:14;101099.03;;;14.51;100.00
53619;BME280;39505;53.040;18.488;2022-10-16T00:28:27;101100.75;;;14.52;100.00
53619;BME280;39505;53.040;18.488;2022-10-16T00:28:41;101104.44;;;14.51;100.00
53619;BME280;39505;53.040;18.488;2022-10-16T00:28:53;101100.91;;;14.51;100.00
53619;BME280;39505;53.040;18.488;2022-10-16T00:29:07;101103.59;;;14.51;100.00
53619;BME280;39505;53.040;18.488;2022-10-16T00:29:21;101103.59;;;14.51;100.00
53619;BME280;39505;53.040;18.488;2022-10-16T00:29:33;101102.75;;;14.50;100.00
53619;BME280;39505;53.040;18.488;2022-10-16T00:29:49;101107.44;;;14.48;100.00
53619;BME280;39505;53.040;18.488;2022-10-16T00:30:05;101104.75;;;14.48;100.00
53619;BME280;39505;53.040;18.488;2022-10-16T00:30:18;101101.19;;;14.48;100.00
53619;BME280;39505;53.040;18.488;2022-10-16T00:30:30;101102.19;;;14.47;100.00
53619;BME280;39505;53.040;18.488;2022-10-16T00:30:43;101108.44;;;14.47;100.00
53619;BME280;39505;53.040;18.488;2022-10-16T00:30:56;101105.91;;;14.46;100.00
53619;BME280;39505;53.040;18.488;2022-10-16T00:31:11;101110.44;;;14.45;100.00
53619;BME280;39505;53.040;18.488;2022-10-16T00:31:24;101105.91;;;14.46;100.00
53619;BME280;39505;53.040;18.488;2022-10-16T00:31:37;101104.19;;;14.45;100.00
53619;BME280;39505;53.040;18.488;2022-10-16T00:31:50;101108.75;;;14.44;100.00
53619;BME280;39505;53.040;18.488;2022-10-16T00:32:03;101101.63;;;14.43;100.00
53619;BME280;39505;53.040;18.488;2022-10-16T00:32:15;101107.03;;;14.43;100.00
53619;BME280;39505;53.040;18.488;2022-10-16T00:32:28;101107.03;;;14.43;100.00
53619;BME280;39505;53.040;18.488;2022-10-16T00:32:41;101106.19;;;14.43;100.00
53619;BME280;39505;53.040;18.488;2022-10-16T00:32:55;101109.03;;;14.41;100.00
53619;BME280;39505;53.040;18.488;2022-10-16T00:33:07;101109.91;;;14.42;100.00
53619;BME280;39505;53.040;18.488;2022-10-16T00:33:20;101103.63;;;14.41;100.00
53619;BME280;39505;53.040;18.488;2022-10-16T00:33:33;101106.31;;;14.41;100.00
53619;BME280;39505;53.040;18.488;2022-10-16T00:33:46;101104.66;;;14.40;100.00
53619;BME280;39505;53.040;18.488;2022-10-16T00:33:59;101106.50;;;14.40;100.00
53619;BME280;39505;53.040;18.488;2022-10-16T00:34:12;101109.19;;;14.40;100.00
53619;BME280;39505;53.040;18.488;2022-10-16T00:34:25;101111.03;;;14.39;100.00
53619;BME280;39505;53.040;18.488;2022-10-16T00:34:38;101115.44;;;14.40;100.00
53619;BME280;39505;53.040;18.488;2022-10-16T00:34:50;101112.03;;;14.38;100.00
53619;BME280;39505;53.040;18.488;2022-10-16T00:35:04;101108.50;;;14.37;100.00
53619;BME280;39505;53.040;18.488;2022-10-16T00:35:17;101112.34;;;14.35;100.00
53619;BME280;39505;53.040;18.488;2022-10-16T00:35:30;101104.25;;;14.35;100.00
53619;BME280;39505;53.040;18.488;2022-10-16T00:35:43;101107.94;;;14.34;100.00
53619;BME280;39505;53.040;18.488;2022-10-16T00:35:57;101112.47;;;14.33;100.00
53619;BME280;39505;53.040;18.488;2022-10-16T00:36:12;101105.38;;;14.32;100.00
53619;BME280;39505;53.040;18.488;2022-10-16T00:36:26;101107.22;;;14.32;100.00
53619;BME280;39505;53.040;18.488;2022-10-16T00:36:39;101109.09;;;14.31;100.00
53619;BME280;39505;53.040;18.488;2022-10-16T00:36:52;101106.38;;;14.31;100.00
53619;BME280;39505;53.040;18.488;2022-10-16T00:37:04;101107.38;;;14.30;100.00
53619;BME280;39505;53.040;18.488;2022-10-16T00:37:17;101106.53;;;14.30;100.00
53619;BME280;39505;53.040;18.488;2022-10-16T00:37:30;101111.06;;;14.29;100.00
53619;BME280;39505;53.040;18.488;2022-10-16T00:37:43;101105.69;;;14.29;100.00
53619;BME280;39505;53.040;18.488;2022-10-16T00:37:56;101108.47;;;14.28;100.00
53619;BME280;39505;53.040;18.488;2022-10-16T00:38:09;101105.78;;;14.28;100.00
53619;BME280;39505;53.040;18.488;2022-10-16T00:38:21;101108.47;;;14.28;100.00
53619;BME280;39505;53.040;18.488;2022-10-16T00:38:34;101102.38;;;14.26;100.00
53619;BME280;39505;53.040;18.488;2022-10-16T00:38:50;101105.09;;;14.26;100.00
53619;BME280;39505;53.040;18.488;2022-10-16T00:39:06;101105.09;;;14.26;100.00
53619;BME280;39505;53.040;18.488;2022-10-16T00:39:18;101103.41;;;14.25;100.00
53619;BME280;39505;53.040;18.488;2022-10-16T00:39:31;101105.25;;;14.24;100.00
53619;BME280;39505;53.040;18.488;2022-10-16T00:39:44;101106.09;;;14.25;100.00
53619;BME280;39505;53.040;18.488;2022-10-16T00:39:57;101107.06;;;14.24;100.00
53619;BME280;39505;53.040;18.488;2022-10-16T00:40:10;101106.09;;;14.25;100.00
53619;BME280;39505;53.040;18.488;2022-10-16T00:40:24;101100.72;;;14.25;100.00
53619;BME280;39505;53.040;18.488;2022-10-16T00:40:37;101107.06;;;14.24;100.00
53619;BME280;39505;53.040;18.488;2022-10-16T00:40:49;101107.06;;;14.24;100.00
53619;BME280;39505;53.040;18.488;2022-10-16T00:41:02;101103.53;;;14.23;100.00
53619;BME280;39505;53.040;18.488;2022-10-16T00:41:16;101105.41;;;14.23;100.00
53619;BME280;39505;53.040;18.488;2022-10-16T00:41:32;101102.69;;;14.23;100.00
53619;BME280;39505;53.040;18.488;2022-10-16T00:41:46;101109.06;;;14.22;100.00
53619;BME280;39505;53.040;18.488;2022-10-16T00:41:58;101109.94;;;14.22;100.00
53619;BME280;39505;53.040;18.488;2022-10-16T00:42:14;101111.78;;;14.22;100.00
53619;BME280;39505;53.040;18.488;2022-10-16T00:42:28;101102.00;;;14.21;100.00
53619;BME280;39505;53.040;18.488;2022-10-16T00:42:40;101106.53;;;14.20;100.00
53619;BME280;39505;53.040;18.488;2022-10-16T00:42:53;101106.69;;;14.18;100.00
53619;BME280;39505;53.040;18.488;2022-10-16T00:43:12;101112.22;;;14.17;100.00
53619;BME280;39505;53.040;18.488;2022-10-16T00:43:38;101105.00;;;14.17;100.00
53619;BME280;39505;53.040;18.488;2022-10-16T00:43:53;101104.28;;;14.15;100.00
53619;BME280;39505;53.040;18.488;2022-10-16T00:44:54;101112.53;;;14.14;100.00
53619;BME280;39505;53.040;18.488;2022-10-16T00:45:10;101115.34;;;14.12;100.00
53619;BME280;39505;53.040;18.488;2022-10-16T00:45:23;101108.28;;;14.11;100.00
53619;BME280;39505;53.040;18.488;2022-10-16T00:45:36;101111.09;;;14.10;100.00
53619;BME280;39505;53.040;18.488;2022-10-16T00:45:49;101120.03;;;14.10;100.00
53619;BME280;39505;53.040;18.488;2022-10-16T00:46:04;101113.66;;;14.11;100.00
53619;BME280;39505;53.040;18.488;2022-10-16T00:46:20;101121.75;;;14.11;100.00
53619;BME280;39505;53.040;18.488;2022-10-16T00:46:38;101113.66;;;14.11;100.00
53619;BME280;39505;53.040;18.488;2022-10-16T00:46:52;101117.34;;;14.10;100.00
53619;BME280;39505;53.040;18.488;2022-10-16T00:47:04;101110.28;;;14.09;100.00
53619;BME280;39505;53.040;18.488;2022-10-16T00:47:21;101118.34;;;14.09;100.00
53619;BME280;39505;53.040;18.488;2022-10-16T00:47:37;101112.97;;;14.09;100.00
53619;BME280;39505;53.040;18.488;2022-10-16T00:47:52;101124.72;;;14.08;100.00
53619;BME280;39505;53.040;18.488;2022-10-16T00:48:10;101123.88;;;14.08;100.00
53619;BME280;39505;53.040;18.488;2022-10-16T00:48:24;101119.34;;;14.08;100.00
53619;BME280;39505;53.040;18.488;2022-10-16T00:48:38;101113.25;;;14.06;100.00
53619;BME280;39505;53.040;18.488;2022-10-16T00:48:55;101121.31;;;14.06;100.00
53619;BME280;39505;53.040;18.488;2022-10-16T00:49:11;101119.63;;;14.05;100.00
53619;BME280;39505;53.040;18.488;2022-10-16T00:49:24;101122.34;;;14.05;100.00
53619;BME280;39505;53.040;18.488;2022-10-16T00:49:37;101125.03;;;14.05;100.00
53619;BME280;39505;53.040;18.488;2022-10-16T00:49:51;101125.03;;;14.05;100.00
53619;BME280;39505;53.040;18.488;2022-10-16T00:50:08;101117.94;;;14.04;100.00
53619;BME280;39505;53.040;18.488;2022-10-16T00:50:27;101124.19;;;14.05;100.00
53619;BME280;39505;53.040;18.488;2022-10-16T00:50:40;101124.19;;;14.05;100.00
53619;BME280;39505;53.040;18.488;2022-10-16T00:50:56;101128.72;;;14.04;100.00
53619;BME280;39505;53.040;18.488;2022-10-16T00:51:10;101116.25;;;14.03;100.00
53619;BME280;39505;53.040;18.488;2022-10-16T00:51:26;101121.94;;;14.00;100.00
53619;BME280;39505;53.040;18.488;2022-10-16T00:51:43;101117.25;;;14.02;100.00
53619;BME280;39505;53.040;18.488;2022-10-16T00:51:57;101119.94;;;14.02;100.00
53619;BME280;39505;53.040;18.488;2022-10-16T00:52:10;101125.34;;;14.02;100.00
53619;BME280;39505;53.040;18.488;2022-10-16T00:52:23;101124.47;;;14.02;100.00
53619;BME280;39505;53.040;18.488;2022-10-16T00:52:39;101116.53;;;14.00;100.00
53619;BME280;39505;53.040;18.488;2022-10-16T00:52:54;101116.53;;;14.00;100.00
53619;BME280;39505;53.040;18.488;2022-10-16T00:53:08;101120.22;;;13.99;100.00
53619;BME280;39505;53.040;18.488;2022-10-16T00:53:23;101115.66;;;14.00;100.00
53619;BME280;39505;53.040;18.488;2022-10-16T00:53:37;101115.66;;;14.00;100.00
53619;BME280;39505;53.040;18.488;2022-10-16T00:53:50;101113.16;;;13.98;100.00
53619;BME280;39505;53.040;18.488;2022-10-16T00:54:04;101121.22;;;13.98;100.00
53619;BME280;39505;53.040;18.488;2022-10-16T00:54:23;101115.84;;;13.98;100.00
53619;BME280;39505;53.040;18.488;2022-10-16T00:54:37;101111.44;;;13.97;100.00
53619;BME280;39505;53.040;18.488;2022-10-16T00:54:52;101115.13;;;13.96;100.00
53619;BME280;39505;53.040;18.488;2022-10-16T00:55:06;101109.75;;;13.96;100.00
53619;BME280;39505;53.040;18.488;2022-10-16T00:55:21;101107.88;;;13.96;100.00
53619;BME280;39505;53.040;18.488;2022-10-16T00:55:34;101109.88;;;13.94;100.00
53619;BME280;39505;53.040;18.488;2022-10-16T00:55:53;101110.72;;;13.95;100.00
53619;BME280;39505;53.040;18.488;2022-10-16T00:56:06;101109.03;;;13.94;100.00
53619;BME280;39505;53.040;18.488;2022-10-16T00:56:19;101108.88;;;13.95;100.00
53619;BME280;39505;53.040;18.488;2022-10-16T00:56:32;101113.59;;;13.93;100.00
53619;BME280;39505;53.040;18.488;2022-10-16T00:56:46;101117.25;;;13.92;100.00
53619;BME280;39505;53.040;18.488;2022-10-16T00:57:01;101111.03;;;13.92;100.00
53619;BME280;39505;53.040;18.488;2022-10-16T00:57:15;101101.94;;;13.93;100.00
53619;BME280;39505;53.040;18.488;2022-10-16T00:57:28;101110.00;;;13.93;100.00
53619;BME280;39505;53.040;18.488;2022-10-16T00:57:41;101109.03;;;13.94;100.00
53619;BME280;39505;53.040;18.488;2022-10-16T00:57:54;101110.00;;;13.93;100.00
53619;BME280;39505;53.040;18.488;2022-10-16T00:58:09;101107.31;;;13.93;100.00
53619;BME280;39505;53.040;18.488;2022-10-16T00:58:22;101105.63;;;13.92;100.00
53619;BME280;39505;53.040;18.488;2022-10-16T00:58:35;101105.63;;;13.92;100.00
53619;BME280;39505;53.040;18.488;2022-10-16T00:58:47;101102.94;;;13.92;100.00
53619;BME280;39505;53.040;18.488;2022-10-16T00:59:02;101105.78;;;13.90;100.00
53619;BME280;39505;53.040;18.488;2022-10-16T00:59:18;101107.50;;;13.91;100.00
53619;BME280;39505;53.040;18.488;2022-10-16T00:59:34;101104.78;;;13.91;100.00
53619;BME280;39505;53.040;18.488;2022-10-16T00:59:49;101112.00;;;13.91;100.00
53619;BME280;39505;53.040;18.488;2022-10-16T01:00:06;101110.31;;;13.90;100.00
53619;BME280;39505;53.040;18.488;2022-10-16T01:00:22;101106.78;;;13.89;100.00
53619;BME280;39505;53.040;18.488;2022-10-16T01:00:35;101110.44;;;13.88;100.00
53619;BME280;39505;53.040;18.488;2022-10-16T01:00:48;101112.31;;;13.88;100.00
53619;BME280;39505;53.040;18.488;2022-10-16T01:01:00;101108.91;;;13.86;100.00
53619;BME280;39505;53.040;18.488;2022-10-16T01:01:13;101113.28;;;13.87;100.00
53619;BME280;39505;53.040;18.488;2022-10-16T01:01:27;101111.72;;;13.84;100.00
53619;BME280;39505;53.040;18.488;2022-10-16T01:01:40;101111.59;;;13.86;100.00
53619;BME280;39505;53.040;18.488;2022-10-16T01:01:54;101107.06;;;13.86;100.00
53619;BME280;39505;53.040;18.488;2022-10-16T01:02:09;101108.19;;;13.84;100.00
53619;BME280;39505;53.040;18.488;2022-10-16T01:02:22;101118.00;;;13.85;100.00
53619;BME280;39505;53.040;18.488;2022-10-16T01:02:36;101103.66;;;13.84;100.00
53619;BME280;39505;53.040;18.488;2022-10-16T01:02:52;101117.13;;;13.84;100.00
53619;BME280;39505;53.040;18.488;2022-10-16T01:03:24;101110.75;;;13.85;100.00
53619;BME280;39505;53.040;18.488;2022-10-16T01:03:37;101110.06;;;13.83;100.00
53619;BME280;39505;53.040;18.488;2022-10-16T01:03:50;101109.91;;;13.85;100.00
53619;BME280;39505;53.040;18.488;2022-10-16T01:04:02;101111.72;;;13.84;100.00
53619;BME280;39505;53.040;18.488;2022-10-16T01:04:15;101103.66;;;13.84;100.00
53619;BME280;39505;53.040;18.488;2022-10-16T01:04:32;101105.50;;;13.84;100.00
53619;BME280;39505;53.040;18.488;2022-10-16T01:04:49;101110.91;;;13.84;100.00
53619;BME280;39505;53.040;18.488;2022-10-16T01:05:04;101106.34;;;13.84;100.00
53619;BME280;39505;53.040;18.488;2022-10-16T01:05:17;101100.97;;;13.84;100.00
53619;BME280;39505;53.040;18.488;2022-10-16T01:05:34;101104.53;;;13.85;100.00
53619;BME280;39505;53.040;18.488;2022-10-16T01:05:59;101106.34;;;13.84;100.00
53619;BME280;39505;53.040;18.488;2022-10-16T01:06:23;101109.03;;;13.84;100.00
53619;BME280;39505;53.040;18.488;2022-10-16T01:06:48;101097.56;;;13.82;100.00
53619;BME280;39505;53.040;18.488;2022-10-16T01:07:12;101111.91;;;13.83;100.00
53619;BME280;39505;53.040;18.488;2022-10-16T01:07:39;101099.41;;;13.82;100.00
53619;BME280;39505;53.040;18.488;2022-10-16T01:07:59;101103.94;;;13.81;100.00
53619;BME280;39505;53.040;18.488;2022-10-16T01:08:21;101107.50;;;13.82;100.00
53619;BME280;39505;53.040;18.488;2022-10-16T01:08:44;101108.50;;;13.81;100.00
53619;BME280;39505;53.040;18.488;2022-10-16T01:09:14;101111.19;;;13.81;100.00
53619;BME280;39505;53.040;18.488;2022-10-16T01:09:34;101116.59;;;13.81;100.00
53619;BME280;39505;53.040;18.488;2022-10-16T01:09:57;101108.50;;;13.81;100.00
53619;BME280;39505;53.040;18.488;2022-10-16T01:10:20;101113.00;;;13.80;100.00
53619;BME280;39505;53.040;18.488;2022-10-16T01:10:42;101105.81;;;13.81;100.00
53619;BME280;39505;53.040;18.488;2022-10-16T01:11:05;101106.78;;;13.80;100.00
53619;BME280;39505;53.040;18.488;2022-10-16T01:11:27;101108.78;;;13.77;100.00
53619;BME280;39505;53.040;18.488;2022-10-16T01:11:50;101107.78;;;13.79;100.00
53619;BME280;39505;53.040;18.488;2022-10-16T01:12:12;101111.47;;;13.77;100.00
53619;BME280;39505;53.040;18.488;2022-10-16T01:12:33;101112.31;;;13.78;100.00
53619;BME280;39505;53.040;18.488;2022-10-16T01:12:55;101107.94;;;13.77;100.00
53619;BME280;39505;53.040;18.488;2022-10-16T01:13:11;101103.38;;;13.77;100.00
53619;BME280;39505;53.040;18.488;2022-10-16T01:13:33;101114.31;;;13.76;100.00
53619;BME280;39505;53.040;18.488;2022-10-16T01:13:53;101114.31;;;13.76;100.00
53619;BME280;39505;53.040;18.488;2022-10-16T01:14:11;101113.44;;;13.75;100.00
53619;BME280;39505;53.040;18.488;2022-10-16T01:14:34;101111.78;;;13.74;100.00
53619;BME280;39505;53.040;18.488;2022-10-16T01:14:53;101109.22;;;13.73;100.00
53619;BME280;39505;53.040;18.488;2022-10-16T01:15:14;101112.03;;;13.71;100.00
53619;BME280;39505;53.040;18.488;2022-10-16T01:15:34;101113.75;;;13.72;100.00